sensor_id;sensor_type;location;lat;lon;timestamp;temperature;humidity
16958;DHT22;8595;52.542;11.974;2022-12-18T00:00:14;-5.50;99.90
16958;DHT22;8595;52.542;11.974;2022-12-18T00:02:42;-5.50;99.90
16958;DHT22;8595;52.542;11.974;2022-12-18T00:05:08;-5.50;99.90
16958;DHT22;8595;52.542;11.974;2022-12-18T00:07:35;-5.40;99.90
16958;DHT22;8595;52.542;11.974;2022-12-18T00:10:04;-5.50;99.90
16958;DHT22;8595;52.542;11.974;2022-12-18T00:12:31;-5.50;99.90
16958;DHT22;8595;52.542;11.974;2022-12-18T00:14:57;-5.50;99.90
16958;DHT22;8595;52.542;11.974;2022-12-18T00:17:25;-5.50;99.90
16958;DHT22;8595;52.542;11.974;2022-12-18T00:19:52;-5.50;99.90
16958;DHT22;8595;52.542;11.974;2022-12-18T00:22:19;-5.50;99.90
16958;DHT22;8595;52.542;11.974;2022-12-18T00:24:45;-5.60;99.90
16958;DHT22;8595;52.542;11.974;2022-12-18T00:27:12;-5.60;99.90
16958;DHT22;8595;52.542;11.974;2022-12-18T00:29:39;-5.60;99.90
16958;DHT22;8595;52.542;11.974;2022-12-18T00:32:06;-5.70;99.90
16958;DHT22;8595;52.542;11.974;2022-12-18T00:34:34;-5.80;99.90
16958;DHT22;8595;52.542;11.974;2022-12-18T00:37:00;-5.80;99.90
16958;DHT22;8595;52.542;11.974;2022-12-18T00:39:27;-5.70;99.90
16958;DHT22;8595;52.542;11.974;2022-12-18T00:41:54;-5.70;99.90
16958;DHT22;8595;52.542;11.974;2022-12-18T00:44:34;-5.70;99.90
16958;DHT22;8595;52.542;11.974;2022-12-18T00:47:01;-5.70;99.90
16958;DHT22;8595;52.542;11.974;2022-12-18T00:49:28;-5.70;99.90
16958;DHT22;8595;52.542;11.974;2022-12-18T00:51:56;-5.70;99.90
16958;DHT22;8595;52.542;11.974;2022-12-18T00:54:23;-5.70;99.90
16958;DHT22;8595;52.542;11.974;2022-12-18T00:56:50;-5.70;99.90
16958;DHT22;8595;52.542;11.974;2022-12-18T00:59:17;-5.80;99.90
16958;DHT22;8595;52.542;11.974;2022-12-18T01:01:45;-5.80;99.90
16958;DHT22;8595;52.542;11.974;2022-12-18T01:04:12;-5.80;99.90
16958;DHT22;8595;52.542;11.974;2022-12-18T01:06:40;-5.80;99.90
16958;DHT22;8595;52.542;11.974;2022-12-18T01:09:08;-5.70;99.90
16958;DHT22;8595;52.542;11.974;2022-12-18T01:11:34;-5.80;99.90
16958;DHT22;8595;52.542;11.974;2022-12-18T01:14:01;-5.90;99.90
16958;DHT22;8595;52.542;11.974;2022-12-18T01:16:28;-5.80;99.90
16958;DHT22;8595;52.542;11.974;2022-12-18T01:18:55;-6.00;99.90
16958;DHT22;8595;52.542;11.974;2022-12-18T01:21:22;-6.00;99.90
16958;DHT22;8595;52.542;11.974;2022-12-18T01:23:53;-6.10;99.90
16958;DHT22;8595;52.542;11.974;2022-12-18T01:26:21;-6.10;99.90
16958;DHT22;8595;52.542;11.974;2022-12-18T01:28:48;-6.20;99.90
16958;DHT22;8595;52.542;11.974;2022-12-18T01:31:18;-6.10;99.90
16958;DHT22;8595;52.542;11.974;2022-12-18T01:33:45;-6.10;99.90
16958;DHT22;8595;52.542;11.974;2022-12-18T01:36:19;-6.00;99.90
16958;DHT22;8595;52.542;11.974;2022-12-18T01:38:47;-6.00;99.90
16958;DHT22;8595;52.542;11.974;2022-12-18T01:41:15;-6.10;99.90
16958;DHT22;8595;52.542;11.974;2022-12-18T01:43:50;-6.30;99.90
16958;DHT22;8595;52.542;11.974;2022-12-18T01:46:18;-6.20;99.90
16958;DHT22;8595;52.542;11.974;2022-12-18T01:48:47;-6.20;99.90
16958;DHT22;8595;52.542;11.974;2022-12-18T01:51:15;-6.20;99.90
16958;DHT22;8595;52.542;11.974;2022-12-18T01:53:43;-6.20;99.90
16958;DHT22;8595;52.542;11.974;2022-12-18T01:56:13;-6.30;99.90
16958;DHT22;8595;52.542;11.974;2022-12-18T01:58:48;-6.30;99.90
16958;DHT22;8595;52.542;11.974;2022-12-18T02:01:17;-6.30;99.90
16958;DHT22;8595;52.542;11.974;2022-12-18T02:03:44;-6.30;99.90
16958;DHT22;8595;52.542;11.974;2022-12-18T02:06:15;-6.20;99.90
16958;DHT22;8595;52.542;11.974;2022-12-18T02:08:48;-6.30;99.90
16958;DHT22;8595;52.542;11.974;2022-12-18T02:11:23;-6.30;99.90
16958;DHT22;8595;52.542;11.974;2022-12-18T02:14:01;-6.30;99.90
16958;DHT22;8595;52.542;11.974;2022-12-18T02:16:39;-6.30;99.90
16958;DHT22;8595;52.542;11.974;2022-12-18T02:19:18;-6.40;99.90
16958;DHT22;8595;52.542;11.974;2022-12-18T02:21:57;-6.40;99.90
16958;DHT22;8595;52.542;11.974;2022-12-18T02:24:32;-6.60;99.90
16958;DHT22;8595;52.542;11.974;2022-12-18T02:27:04;-6.60;99.90
16958;DHT22;8595;52.542;11.974;2022-12-18T02:29:34;-6.60;99.90
16958;DHT22;8595;52.542;11.974;2022-12-18T02:32:06;-6.50;99.90
16958;DHT22;8595;52.542;11.974;2022-12-18T02:34:39;-6.50;99.90
16958;DHT22;8595;52.542;11.974;2022-12-18T02:37:09;-6.40;99.90
16958;DHT22;8595;52.542;11.974;2022-12-18T02:39:38;-6.40;99.90
16958;DHT22;8595;52.542;11.974;2022-12-18T02:42:07;-6.50;99.90
16958;DHT22;8595;52.542;11.974;2022-12-18T02:44:34;-6.50;99.90
16958;DHT22;8595;52.542;11.974;2022-12-18T02:47:01;-6.50;99.90
16958;DHT22;8595;52.542;11.974;2022-12-18T02:49:36;-6.50;99.90
16958;DHT22;8595;52.542;11.974;2022-12-18T02:52:11;-6.50;99.90
16958;DHT22;8595;52.542;11.974;2022-12-18T02:54:55;-6.60;99.90
16958;DHT22;8595;52.542;11.974;2022-12-18T02:57:31;-6.70;99.90
16958;DHT22;8595;52.542;11.974;2022-12-18T03:00:03;-6.70;99.90
16958;DHT22;8595;52.542;11.974;2022-12-18T03:02:36;-6.80;99.90
16958;DHT22;8595;52.542;11.974;2022-12-18T03:05:09;-6.90;99.90
16958;DHT22;8595;52.542;11.974;2022-12-18T03:07:42;-6.80;99.90
16958;DHT22;8595;52.542;11.974;2022-12-18T03:10:14;-6.80;99.90
16958;DHT22;8595;52.542;11.974;2022-12-18T03:12:46;-6.80;99.90
16958;DHT22;8595;52.542;11.974;2022-12-18T03:15:17;-6.80;99.90
16958;DHT22;8595;52.542;11.974;2022-12-18T03:17:49;-6.80;99.90
16958;DHT22;8595;52.542;11.974;2022-12-18T03:20:20;-6.80;99.90
16958;DHT22;8595;52.542;11.974;2022-12-18T03:22:51;-6.80;99.90
16958;DHT22;8595;52.542;11.974;2022-12-18T03:25:20;-6.90;99.90
16958;DHT22;8595;52.542;11.974;2022-12-18T03:27:51;-6.90;99.90
16958;DHT22;8595;52.542;11.974;2022-12-18T03:30:20;-6.70;99.90
16958;DHT22;8595;52.542;11.974;2022-12-18T03:32:50;-6.70;99.90
16958;DHT22;8595;52.542;11.974;2022-12-18T03:35:22;-6.70;99.90
16958;DHT22;8595;52.542;11.974;2022-12-18T03:37:51;-6.80;99.90
16958;DHT22;8595;52.542;11.974;2022-12-18T03:40:20;-6.80;99.90
16958;DHT22;8595;52.542;11.974;2022-12-18T03:42:52;-6.80;99.90
16958;DHT22;8595;52.542;11.974;2022-12-18T03:45:26;-6.80;99.90
16958;DHT22;8595;52.542;11.974;2022-12-18T03:47:59;-6.80;99.90
16958;DHT22;8595;52.542;11.974;2022-12-18T03:50:36;-6.70;99.90
16958;DHT22;8595;52.542;11.974;2022-12-18T03:53:14;-6.70;99.90
16958;DHT22;8595;52.542;11.974;2022-12-18T03:55:45;-6.60;99.90
16958;DHT22;8595;52.542;11.974;2022-12-18T03:58:17;-6.60;99.90
16958;DHT22;8595;52.542;11.974;2022-12-18T04:00:45;-6.50;99.90
16958;DHT22;8595;52.542;11.974;2022-12-18T04:03:15;-6.50;99.90
16958;DHT22;8595;52.542;11.974;2022-12-18T04:05:43;-6.50;99.90
16958;DHT22;8595;52.542;11.974;2022-12-18T04:08:10;-6.60;99.90
16958;DHT22;8595;52.542;11.974;2022-12-18T04:10:37;-6.60;99.90
16958;DHT22;8595;52.542;11.974;2022-12-18T04:13:04;-6.60;99.90
16958;DHT22;8595;52.542;11.974;2022-12-18T04:15:34;-6.60;99.90
16958;DHT22;8595;52.542;11.974;2022-12-18T04:18:02;-6.50;99.90
16958;DHT22;8595;52.542;11.974;2022-12-18T04:20:29;-6.60;99.90
16958;DHT22;8595;52.542;11.974;2022-12-18T04:22:55;-6.50;99.90
16958;DHT22;8595;52.542;11.974;2022-12-18T04:25:22;-6.50;99.90
16958;DHT22;8595;52.542;11.974;2022-12-18T04:27:49;-6.60;99.90
16958;DHT22;8595;52.542;11.974;2022-12-18T04:30:16;-6.60;99.90
16958;DHT22;8595;52.542;11.974;2022-12-18T04:32:44;-6.50;99.90
16958;DHT22;8595;52.542;11.974;2022-12-18T04:35:11;-6.50;99.90
16958;DHT22;8595;52.542;11.974;2022-12-18T04:37:37;-6.50;99.90
16958;DHT22;8595;52.542;11.974;2022-12-18T04:40:05;-6.50;99.90
16958;DHT22;8595;52.542;11.974;2022-12-18T04:42:32;-6.50;99.90
16958;DHT22;8595;52.542;11.974;2022-12-18T04:44:59;-6.50;99.90
16958;DHT22;8595;52.542;11.974;2022-12-18T04:47:26;-6.50;99.90
16958;DHT22;8595;52.542;11.974;2022-12-18T04:49:54;-6.50;99.90
16958;DHT22;8595;52.542;11.974;2022-12-18T04:52:20;-6.60;99.90
16958;DHT22;8595;52.542;11.974;2022-12-18T04:54:47;-6.60;99.90
16958;DHT22;8595;52.542;11.974;2022-12-18T04:57:14;-6.50;99.90
16958;DHT22;8595;52.542;11.974;2022-12-18T04:59:41;-6.50;99.90
16958;DHT22;8595;52.542;11.974;2022-12-18T05:02:07;-6.50;99.90
16958;DHT22;8595;52.542;11.974;2022-12-18T05:04:34;-6.50;99.90
16958;DHT22;8595;52.542;11.974;2022-12-18T05:07:02;-6.60;99.90
16958;DHT22;8595;52.542;11.974;2022-12-18T05:09:29;-6.60;99.90
16958;DHT22;8595;52.542;11.974;2022-12-18T05:11:55;-6.60;99.90
16958;DHT22;8595;52.542;11.974;2022-12-18T05:14:22;-6.50;99.90
16958;DHT22;8595;52.542;11.974;2022-12-18T05:16:49;-6.50;99.90
16958;DHT22;8595;52.542;11.974;2022-12-18T05:19:16;-6.70;99.90
16958;DHT22;8595;52.542;11.974;2022-12-18T05:21:43;-6.60;99.90
16958;DHT22;8595;52.542;11.974;2022-12-18T05:24:11;-6.70;99.90
16958;DHT22;8595;52.542;11.974;2022-12-18T05:26:38;-6.60;99.90
16958;DHT22;8595;52.542;11.974;2022-12-18T05:29:05;-6.60;99.90
16958;DHT22;8595;52.542;11.974;2022-12-18T05:31:31;-6.60;99.90
16958;DHT22;8595;52.542;11.974;2022-12-18T05:33:58;-6.70;99.90
16958;DHT22;8595;52.542;11.974;2022-12-18T05:36:25;-6.70;99.90
16958;DHT22;8595;52.542;11.974;2022-12-18T05:38:52;-6.60;99.90
16958;DHT22;8595;52.542;11.974;2022-12-18T05:41:20;-6.70;99.90
16958;DHT22;8595;52.542;11.974;2022-12-18T05:43:46;-6.70;99.90
16958;DHT22;8595;52.542;11.974;2022-12-18T05:46:15;-6.80;99.90
16958;DHT22;8595;52.542;11.974;2022-12-18T05:48:43;-6.70;99.90
16958;DHT22;8595;52.542;11.974;2022-12-18T05:51:11;-6.60;99.90
16958;DHT22;8595;52.542;11.974;2022-12-18T05:53:38;-6.70;99.90
16958;DHT22;8595;52.542;11.974;2022-12-18T05:56:07;-6.80;99.90
16958;DHT22;8595;52.542;11.974;2022-12-18T05:58:35;-6.80;99.90
16958;DHT22;8595;52.542;11.974;2022-12-18T06:01:07;-6.70;99.90
16958;DHT22;8595;52.542;11.974;2022-12-18T06:03:35;-6.80;99.90
16958;DHT22;8595;52.542;11.974;2022-12-18T06:06:01;-6.80;99.90
16958;DHT22;8595;52.542;11.974;2022-12-18T06:08:28;-6.80;99.90
16958;DHT22;8595;52.542;11.974;2022-12-18T06:10:55;-6.80;99.90
16958;DHT22;8595;52.542;11.974;2022-12-18T06:13:22;-6.90;99.90
16958;DHT22;8595;52.542;11.974;2022-12-18T06:15:50;-6.90;99.90
16958;DHT22;8595;52.542;11.974;2022-12-18T06:18:17;-6.90;99.90
16958;DHT22;8595;52.542;11.974;2022-12-18T06:20:44;-6.90;99.90
16958;DHT22;8595;52.542;11.974;2022-12-18T06:23:10;-7.00;99.90
16958;DHT22;8595;52.542;11.974;2022-12-18T06:25:38;-6.90;99.90
16958;DHT22;8595;52.542;11.974;2022-12-18T06:28:05;-7.00;99.90
16958;DHT22;8595;52.542;11.974;2022-12-18T06:30:32;-7.00;99.90
16958;DHT22;8595;52.542;11.974;2022-12-18T06:33:00;-7.00;99.90
16958;DHT22;8595;52.542;11.974;2022-12-18T06:35:27;-7.10;99.90
16958;DHT22;8595;52.542;11.974;2022-12-18T06:37:53;-7.10;99.90
16958;DHT22;8595;52.542;11.974;2022-12-18T06:40:21;-7.10;99.90
16958;DHT22;8595;52.542;11.974;2022-12-18T06:42:47;-7.00;99.90
16958;DHT22;8595;52.542;11.974;2022-12-18T06:45:14;-6.90;99.90
16958;DHT22;8595;52.542;11.974;2022-12-18T06:47:41;-7.00;99.90
16958;DHT22;8595;52.542;11.974;2022-12-18T06:50:10;-7.10;99.90
16958;DHT22;8595;52.542;11.974;2022-12-18T06:52:36;-7.10;99.90
16958;DHT22;8595;52.542;11.974;2022-12-18T06:55:05;-7.10;99.90
16958;DHT22;8595;52.542;11.974;2022-12-18T06:57:32;-7.10;99.90
16958;DHT22;8595;52.542;11.974;2022-12-18T06:59:59;-7.20;99.90
16958;DHT22;8595;52.542;11.974;2022-12-18T07:02:26;-7.20;99.90
16958;DHT22;8595;52.542;11.974;2022-12-18T07:04:52;-7.20;99.90
16958;DHT22;8595;52.542;11.974;2022-12-18T07:07:20;-7.10;99.90
16958;DHT22;8595;52.542;11.974;2022-12-18T07:09:49;-7.10;99.90
16958;DHT22;8595;52.542;11.974;2022-12-18T07:12:16;-7.10;99.90
16958;DHT22;8595;52.542;11.974;2022-12-18T07:14:44;-7.10;99.90
16958;DHT22;8595;52.542;11.974;2022-12-18T07:17:10;-7.20;99.90
16958;DHT22;8595;52.542;11.974;2022-12-18T07:19:37;-7.00;99.90
16958;DHT22;8595;52.542;11.974;2022-12-18T07:22:04;-7.00;99.90
16958;DHT22;8595;52.542;11.974;2022-12-18T07:24:33;-6.90;99.90
16958;DHT22;8595;52.542;11.974;2022-12-18T07:27:00;-6.70;99.90
16958;DHT22;8595;52.542;11.974;2022-12-18T07:29:27;-6.60;99.90
16958;DHT22;8595;52.542;11.974;2022-12-18T07:31:54;-6.60;99.90
16958;DHT22;8595;52.542;11.974;2022-12-18T07:34:21;-6.60;99.90
16958;DHT22;8595;52.542;11.974;2022-12-18T07:36:47;-6.60;99.90
16958;DHT22;8595;52.542;11.974;2022-12-18T07:39:14;-6.70;99.90
16958;DHT22;8595;52.542;11.974;2022-12-18T07:41:42;-6.70;99.90
16958;DHT22;8595;52.542;11.974;2022-12-18T07:44:29;-6.70;99.90
16958;DHT22;8595;52.542;11.974;2022-12-18T07:46:56;-6.80;99.90
16958;DHT22;8595;52.542;11.974;2022-12-18T07:49:22;-6.70;99.90
16958;DHT22;8595;52.542;11.974;2022-12-18T07:51:49;-6.70;99.90
16958;DHT22;8595;52.542;11.974;2022-12-18T07:54:16;-6.70;99.90
16958;DHT22;8595;52.542;11.974;2022-12-18T07:56:44;-6.70;99.90
16958;DHT22;8595;52.542;11.974;2022-12-18T07:59:11;-6.70;99.90
16958;DHT22;8595;52.542;11.974;2022-12-18T08:01:37;-6.60;99.90
16958;DHT22;8595;52.542;11.974;2022-12-18T08:04:04;-6.60;99.90
16958;DHT22;8595;52.542;11.974;2022-12-18T08:06:31;-6.60;99.90
16958;DHT22;8595;52.542;11.974;2022-12-18T08:08:58;-6.60;99.90
16958;DHT22;8595;52.542;11.974;2022-12-18T08:11:26;-6.60;99.90
16958;DHT22;8595;52.542;11.974;2022-12-18T08:13:55;-6.60;99.90
16958;DHT22;8595;52.542;11.974;2022-12-18T08:16:22;-6.50;99.90
16958;DHT22;8595;52.542;11.974;2022-12-18T08:18:51;-6.50;99.90
16958;DHT22;8595;52.542;11.974;2022-12-18T08:21:19;-6.40;99.90
16958;DHT22;8595;52.542;11.974;2022-12-18T08:23:48;-6.30;99.90
16958;DHT22;8595;52.542;11.974;2022-12-18T08:26:15;-6.40;99.90
16958;DHT22;8595;52.542;11.974;2022-12-18T08:28:42;-6.30;99.90
16958;DHT22;8595;52.542;11.974;2022-12-18T08:31:11;-6.20;99.90
16958;DHT22;8595;52.542;11.974;2022-12-18T08:33:38;-6.10;99.90
16958;DHT22;8595;52.542;11.974;2022-12-18T08:36:06;-6.10;99.90
16958;DHT22;8595;52.542;11.974;2022-12-18T08:38:33;-6.10;99.90
16958;DHT22;8595;52.542;11.974;2022-12-18T08:40:59;-6.10;99.90
16958;DHT22;8595;52.542;11.974;2022-12-18T08:43:26;-6.10;99.90
16958;DHT22;8595;52.542;11.974;2022-12-18T08:46:11;-6.10;99.90
16958;DHT22;8595;52.542;11.974;2022-12-18T08:48:38;-6.00;99.90
16958;DHT22;8595;52.542;11.974;2022-12-18T08:51:05;-5.90;99.90
16958;DHT22;8595;52.542;11.974;2022-12-18T08:53:32;-5.80;99.90
16958;DHT22;8595;52.542;11.974;2022-12-18T08:55:59;-5.90;99.90
16958;DHT22;8595;52.542;11.974;2022-12-18T08:58:26;-5.90;99.90
16958;DHT22;8595;52.542;11.974;2022-12-18T09:00:52;-5.80;99.90
16958;DHT22;8595;52.542;11.974;2022-12-18T09:03:20;-5.60;99.90
16958;DHT22;8595;52.542;11.974;2022-12-18T09:05:48;-5.60;99.90
16958;DHT22;8595;52.542;11.974;2022-12-18T09:08:15;-5.60;99.90
16958;DHT22;8595;52.542;11.974;2022-12-18T09:10:42;-5.50;99.90
16958;DHT22;8595;52.542;11.974;2022-12-18T09:13:10;-5.40;99.90
16958;DHT22;8595;52.542;11.974;2022-12-18T09:15:40;-5.30;99.90
16958;DHT22;8595;52.542;11.974;2022-12-18T09:18:07;-4.90;99.90
16958;DHT22;8595;52.542;11.974;2022-12-18T09:20:35;-4.40;99.90
16958;DHT22;8595;52.542;11.974;2022-12-18T09:23:02;-4.00;99.90
16958;DHT22;8595;52.542;11.974;2022-12-18T09:25:29;-3.60;99.90
16958;DHT22;8595;52.542;11.974;2022-12-18T09:27:58;-3.20;99.90
16958;DHT22;8595;52.542;11.974;2022-12-18T09:30:25;-2.80;99.90
16958;DHT22;8595;52.542;11.974;2022-12-18T09:32:52;-2.40;99.90
16958;DHT22;8595;52.542;11.974;2022-12-18T09:35:19;-2.10;99.90
16958;DHT22;8595;52.542;11.974;2022-12-18T09:37:47;-1.80;99.90
16958;DHT22;8595;52.542;11.974;2022-12-18T09:40:14;-1.60;99.90
16958;DHT22;8595;52.542;11.974;2022-12-18T09:42:46;-1.30;99.90
16958;DHT22;8595;52.542;11.974;2022-12-18T09:45:15;-1.10;99.90
16958;DHT22;8595;52.542;11.974;2022-12-18T09:47:43;-0.90;99.90
16958;DHT22;8595;52.542;11.974;2022-12-18T09:50:21;-0.70;99.90
16958;DHT22;8595;52.542;11.974;2022-12-18T09:52:54;-0.70;99.90
16958;DHT22;8595;52.542;11.974;2022-12-18T09:55:25;-0.50;99.90
16958;DHT22;8595;52.542;11.974;2022-12-18T09:57:58;-0.20;99.90
16958;DHT22;8595;52.542;11.974;2022-12-18T10:00:27;0.00;99.90
16958;DHT22;8595;52.542;11.974;2022-12-18T10:02:59;0.20;99.90
16958;DHT22;8595;52.542;11.974;2022-12-18T10:05:33;0.20;99.90
16958;DHT22;8595;52.542;11.974;2022-12-18T10:08:07;0.30;99.90
16958;DHT22;8595;52.542;11.974;2022-12-18T10:10:41;0.50;99.90
16958;DHT22;8595;52.542;11.974;2022-12-18T10:13:20;0.80;99.90
16958;DHT22;8595;52.542;11.974;2022-12-18T10:15:57;1.20;99.90
16958;DHT22;8595;52.542;11.974;2022-12-18T10:18:36;1.50;99.90
16958;DHT22;8595;52.542;11.974;2022-12-18T10:21:10;1.50;99.90
16958;DHT22;8595;52.542;11.974;2022-12-18T10:23:44;1.50;99.90
16958;DHT22;8595;52.542;11.974;2022-12-18T10:26:16;1.20;99.90
16958;DHT22;8595;52.542;11.974;2022-12-18T10:28:43;1.00;99.90
16958;DHT22;8595;52.542;11.974;2022-12-18T10:31:15;0.60;99.90
16958;DHT22;8595;52.542;11.974;2022-12-18T10:33:43;0.10;99.90
16958;DHT22;8595;52.542;11.974;2022-12-18T10:36:10;-0.40;99.90
16958;DHT22;8595;52.542;11.974;2022-12-18T10:38:37;-0.90;99.90
16958;DHT22;8595;52.542;11.974;2022-12-18T10:41:08;-1.20;99.90
16958;DHT22;8595;52.542;11.974;2022-12-18T10:44:11;-1.20;99.90
16958;DHT22;8595;52.542;11.974;2022-12-18T10:46:39;-0.80;99.90
16958;DHT22;8595;52.542;11.974;2022-12-18T10:49:17;-0.10;99.90
16958;DHT22;8595;52.542;11.974;2022-12-18T10:51:44;0.50;99.90
16958;DHT22;8595;52.542;11.974;2022-12-18T10:54:15;1.10;99.90
16958;DHT22;8595;52.542;11.974;2022-12-18T10:56:44;1.40;99.90
16958;DHT22;8595;52.542;11.974;2022-12-18T10:59:12;1.60;99.90
16958;DHT22;8595;52.542;11.974;2022-12-18T11:01:48;2.00;99.90
16958;DHT22;8595;52.542;11.974;2022-12-18T11:04:21;2.40;99.90
16958;DHT22;8595;52.542;11.974;2022-12-18T11:06:54;2.80;99.90
16958;DHT22;8595;52.542;11.974;2022-12-18T11:09:22;3.00;99.90
16958;DHT22;8595;52.542;11.974;2022-12-18T11:11:52;3.20;99.90
16958;DHT22;8595;52.542;11.974;2022-12-18T11:14:22;3.30;99.90
16958;DHT22;8595;52.542;11.974;2022-12-18T11:16:50;3.30;99.90
16958;DHT22;8595;52.542;11.974;2022-12-18T11:19:29;3.20;99.90
16958;DHT22;8595;52.542;11.974;2022-12-18T11:21:56;3.30;99.90
16958;DHT22;8595;52.542;11.974;2022-12-18T11:24:27;3.50;99.90
16958;DHT22;8595;52.542;11.974;2022-12-18T11:26:58;3.50;99.90
16958;DHT22;8595;52.542;11.974;2022-12-18T11:29:32;3.60;99.90
16958;DHT22;8595;52.542;11.974;2022-12-18T11:32:24;3.40;99.90
16958;DHT22;8595;52.542;11.974;2022-12-18T11:34:58;3.50;99.90
16958;DHT22;8595;52.542;11.974;2022-12-18T11:37:26;3.50;99.90
16958;DHT22;8595;52.542;11.974;2022-12-18T11:39:57;3.10;99.90
16958;DHT22;8595;52.542;11.974;2022-12-18T11:42:33;3.10;99.90
16958;DHT22;8595;52.542;11.974;2022-12-18T11:45:14;3.10;99.90
16958;DHT22;8595;52.542;11.974;2022-12-18T11:47:51;3.00;99.90
16958;DHT22;8595;52.542;11.974;2022-12-18T11:50:23;2.80;99.90
16958;DHT22;8595;52.542;11.974;2022-12-18T11:52:50;2.60;99.90
16958;DHT22;8595;52.542;11.974;2022-12-18T11:55:27;2.50;99.90
16958;DHT22;8595;52.542;11.974;2022-12-18T11:58:02;2.20;99.90
16958;DHT22;8595;52.542;11.974;2022-12-18T12:00:31;2.60;99.90
16958;DHT22;8595;52.542;11.974;2022-12-18T12:03:22;2.50;99.90
16958;DHT22;8595;52.542;11.974;2022-12-18T12:06:02;2.20;99.90
16958;DHT22;8595;52.542;11.974;2022-12-18T12:08:39;2.10;99.90
16958;DHT22;8595;52.542;11.974;2022-12-18T12:11:12;2.20;99.90
16958;DHT22;8595;52.542;11.974;2022-12-18T12:14:00;2.50;99.90
16958;DHT22;8595;52.542;11.974;2022-12-18T12:16:34;2.40;99.90
16958;DHT22;8595;52.542;11.974;2022-12-18T12:19:17;2.00;99.90
16958;DHT22;8595;52.542;11.974;2022-12-18T12:21:50;1.80;99.90
16958;DHT22;8595;52.542;11.974;2022-12-18T12:24:32;1.90;99.90
16958;DHT22;8595;52.542;11.974;2022-12-18T12:27:09;1.70;99.90
16958;DHT22;8595;52.542;11.974;2022-12-18T12:29:46;1.60;99.90
16958;DHT22;8595;52.542;11.974;2022-12-18T12:32:24;2.00;99.90
16958;DHT22;8595;52.542;11.974;2022-12-18T12:35:02;1.90;99.90
16958;DHT22;8595;52.542;11.974;2022-12-18T12:37:40;1.60;99.90
16958;DHT22;8595;52.542;11.974;2022-12-18T12:40:12;1.00;99.90
16958;DHT22;8595;52.542;11.974;2022-12-18T12:42:46;0.80;99.90
16958;DHT22;8595;52.542;11.974;2022-12-18T12:45:36;0.50;99.90
16958;DHT22;8595;52.542;11.974;2022-12-18T12:48:05;0.50;99.90
16958;DHT22;8595;52.542;11.974;2022-12-18T12:50:34;0.60;99.90
16958;DHT22;8595;52.542;11.974;2022-12-18T12:53:06;0.50;99.90
16958;DHT22;8595;52.542;11.974;2022-12-18T12:55:34;0.60;99.90
16958;DHT22;8595;52.542;11.974;2022-12-18T12:58:05;0.60;99.90
16958;DHT22;8595;52.542;11.974;2022-12-18T13:00:41;0.70;99.90
16958;DHT22;8595;52.542;11.974;2022-12-18T13:03:15;0.80;99.90
16958;DHT22;8595;52.542;11.974;2022-12-18T13:05:49;0.50;99.90
16958;DHT22;8595;52.542;11.974;2022-12-18T13:08:23;0.00;99.90
16958;DHT22;8595;52.542;11.974;2022-12-18T13:10:51;-0.40;99.90
16958;DHT22;8595;52.542;11.974;2022-12-18T13:13:49;-0.70;99.90
16958;DHT22;8595;52.542;11.974;2022-12-18T13:16:19;-0.90;99.90
16958;DHT22;8595;52.542;11.974;2022-12-18T13:18:49;-1.10;99.90
16958;DHT22;8595;52.542;11.974;2022-12-18T13:21:21;-1.00;99.90
16958;DHT22;8595;52.542;11.974;2022-12-18T13:23:50;-1.10;99.90
16958;DHT22;8595;52.542;11.974;2022-12-18T13:26:31;-1.20;99.90
16958;DHT22;8595;52.542;11.974;2022-12-18T13:29:41;-1.40;99.90
16958;DHT22;8595;52.542;11.974;2022-12-18T13:32:20;-1.60;99.90
16958;DHT22;8595;52.542;11.974;2022-12-18T13:34:47;-1.70;99.90
16958;DHT22;8595;52.542;11.974;2022-12-18T13:37:42;-1.90;99.90
16958;DHT22;8595;52.542;11.974;2022-12-18T13:43:34;-2.00;99.90
16958;DHT22;8595;52.542;11.974;2022-12-18T13:46:06;-2.10;99.90
16958;DHT22;8595;52.542;11.974;2022-12-18T13:48:50;-2.10;99.90
16958;DHT22;8595;52.542;11.974;2022-12-18T13:51:17;-2.20;99.90
16958;DHT22;8595;52.542;11.974;2022-12-18T13:53:49;-2.30;99.90
16958;DHT22;8595;52.542;11.974;2022-12-18T13:56:23;-2.50;99.90
16958;DHT22;8595;52.542;11.974;2022-12-18T13:59:14;-2.50;99.90
16958;DHT22;8595;52.542;11.974;2022-12-18T14:01:48;-2.50;99.90
16958;DHT22;8595;52.542;11.974;2022-12-18T14:04:22;-2.60;99.90
16958;DHT22;8595;52.542;11.974;2022-12-18T14:06:51;-2.60;99.90
16958;DHT22;8595;52.542;11.974;2022-12-18T14:09:23;-2.70;99.90
16958;DHT22;8595;52.542;11.974;2022-12-18T14:11:51;-2.80;99.90
16958;DHT22;8595;52.542;11.974;2022-12-18T14:14:41;-2.80;99.90
16958;DHT22;8595;52.542;11.974;2022-12-18T14:17:10;-2.80;99.90
16958;DHT22;8595;52.542;11.974;2022-12-18T14:19:41;-3.00;99.90
16958;DHT22;8595;52.542;11.974;2022-12-18T14:22:15;-3.00;99.90
16958;DHT22;8595;52.542;11.974;2022-12-18T14:24:42;-3.00;99.90
16958;DHT22;8595;52.542;11.974;2022-12-18T14:27:21;-3.10;99.90
16958;DHT22;8595;52.542;11.974;2022-12-18T14:29:47;-3.20;99.90
16958;DHT22;8595;52.542;11.974;2022-12-18T14:32:16;-3.20;99.90
16958;DHT22;8595;52.542;11.974;2022-12-18T14:34:44;-3.30;99.90
16958;DHT22;8595;52.542;11.974;2022-12-18T14:37:13;-3.40;99.90
16958;DHT22;8595;52.542;11.974;2022-12-18T14:39:40;-3.40;99.90
16958;DHT22;8595;52.542;11.974;2022-12-18T14:42:10;-3.50;99.90
16958;DHT22;8595;52.542;11.974;2022-12-18T14:44:37;-3.50;99.90
16958;DHT22;8595;52.542;11.974;2022-12-18T14:47:04;-3.50;99.90
16958;DHT22;8595;52.542;11.974;2022-12-18T14:49:33;-3.40;99.90
16958;DHT22;8595;52.542;11.974;2022-12-18T14:52:03;-3.50;99.90
16958;DHT22;8595;52.542;11.974;2022-12-18T14:54:32;-3.60;99.90
16958;DHT22;8595;52.542;11.974;2022-12-18T14:57:02;-3.70;99.90
16958;DHT22;8595;52.542;11.974;2022-12-18T14:59:30;-3.70;99.90
16958;DHT22;8595;52.542;11.974;2022-12-18T15:02:01;-3.80;99.90
16958;DHT22;8595;52.542;11.974;2022-12-18T15:04:32;-3.80;99.90
16958;DHT22;8595;52.542;11.974;2022-12-18T15:07:08;-3.90;99.90
16958;DHT22;8595;52.542;11.974;2022-12-18T15:09:36;-3.90;99.90
16958;DHT22;8595;52.542;11.974;2022-12-18T15:12:04;-3.90;99.90
16958;DHT22;8595;52.542;11.974;2022-12-18T15:14:33;-3.90;99.90
16958;DHT22;8595;52.542;11.974;2022-12-18T15:17:03;-3.90;99.90
16958;DHT22;8595;52.542;11.974;2022-12-18T15:19:39;-3.90;99.90
16958;DHT22;8595;52.542;11.974;2022-12-18T15:22:18;-3.90;99.90
16958;DHT22;8595;52.542;11.974;2022-12-18T15:24:46;-3.90;99.90
16958;DHT22;8595;52.542;11.974;2022-12-18T15:27:25;-3.90;99.90
16958;DHT22;8595;52.542;11.974;2022-12-18T15:30:25;-3.90;99.90
16958;DHT22;8595;52.542;11.974;2022-12-18T15:32:55;-3.90;99.90
16958;DHT22;8595;52.542;11.974;2022-12-18T15:35:40;-3.90;99.90
16958;DHT22;8595;52.542;11.974;2022-12-18T15:38:07;-3.90;99.90
16958;DHT22;8595;52.542;11.974;2022-12-18T15:40:34;-3.90;99.90
16958;DHT22;8595;52.542;11.974;2022-12-18T15:43:00;-3.90;99.90
16958;DHT22;8595;52.542;11.974;2022-12-18T15:45:44;-4.00;99.90
16958;DHT22;8595;52.542;11.974;2022-12-18T15:48:19;-4.00;99.90
16958;DHT22;8595;52.542;11.974;2022-12-18T15:50:49;-4.00;99.90
16958;DHT22;8595;52.542;11.974;2022-12-18T15:53:16;-4.10;99.90
16958;DHT22;8595;52.542;11.974;2022-12-18T15:55:43;-4.00;99.90